createdAt,value
2019-01-20T00:01:29.391Z,-4.70
2019-01-20T00:03:33.579Z,-4.70
2019-01-20T00:05:42.344Z,-4.70
2019-01-20T00:07:48.513Z,-4.70
2019-01-20T00:09:54.371Z,-4.70
2019-01-20T00:12:10.312Z,-4.60
2019-01-20T00:14:17.992Z,-4.70
2019-01-20T00:16:21.888Z,-4.70
2019-01-20T00:18:25.947Z,-4.70
2019-01-20T00:20:30.028Z,-4.70
2019-01-20T00:22:33.846Z,-4.80
2019-01-20T00:24:37.818Z,-4.80
2019-01-20T00:26:41.711Z,-4.80
2019-01-20T00:28:46.827Z,-4.90
2019-01-20T00:30:52.260Z,-4.90
2019-01-20T00:32:56.161Z,-5.00
2019-01-20T00:35:00.263Z,-5.00
2019-01-20T00:37:04.338Z,-5.00
2019-01-20T00:39:09.313Z,-5.10
2019-01-20T00:41:13.346Z,-5.10
2019-01-20T00:43:17.403Z,-5.10
2019-01-20T00:45:21.419Z,-5.10
2019-01-20T00:47:25.371Z,-5.10
2019-01-20T00:49:29.319Z,-5.10
2019-01-20T00:51:33.650Z,-5.10
2019-01-20T00:53:37.635Z,-5.20
2019-01-20T00:55:41.551Z,-5.20
2019-01-20T00:57:45.532Z,-5.30
2019-01-20T00:59:49.442Z,-5.30
2019-01-20T01:02:01.503Z,-5.30
2019-01-20T01:04:05.811Z,-5.30
2019-01-20T01:06:09.711Z,-5.30
2019-01-20T01:08:13.663Z,-5.30
2019-01-20T01:10:17.595Z,-5.30
2019-01-20T01:12:22.327Z,-5.30
2019-01-20T01:14:26.214Z,-5.30
2019-01-20T01:16:30.130Z,-5.40
2019-01-20T01:18:34.058Z,-5.40
2019-01-20T01:20:38.246Z,-5.50
2019-01-20T01:22:42.197Z,-5.50
2019-01-20T01:24:46.126Z,-5.60
2019-01-20T01:26:49.986Z,-5.60
2019-01-20T01:28:53.861Z,-5.60
2019-01-20T01:30:57.741Z,-5.60
2019-01-20T01:33:01.889Z,-5.60
2019-01-20T01:35:06.286Z,-5.60
2019-01-20T01:37:10.132Z,-5.60
2019-01-20T01:39:14.594Z,-5.60
2019-01-20T01:41:18.530Z,-5.70
2019-01-20T01:43:22.436Z,-5.70
2019-01-20T01:45:26.325Z,-5.80
2019-01-20T01:47:30.134Z,-5.80
2019-01-20T01:49:33.986Z,-5.80
2019-01-20T01:51:37.907Z,-5.80
2019-01-20T01:53:41.808Z,-5.80
2019-01-20T01:55:45.735Z,-5.80
2019-01-20T01:57:49.919Z,-5.90
2019-01-20T01:59:53.803Z,-5.90
2019-01-20T02:01:57.811Z,-5.90
2019-01-20T02:04:01.775Z,-6.00
2019-01-20T02:06:07.856Z,-6.00
2019-01-20T02:08:13.076Z,-6.00
2019-01-20T02:10:18.919Z,-6.00
2019-01-20T02:12:22.922Z,-6.10
2019-01-20T02:14:26.742Z,-6.10
2019-01-20T02:16:30.774Z,-6.10
2019-01-20T02:18:34.647Z,-6.10
2019-01-20T02:20:38.890Z,-6.10
2019-01-20T02:22:42.940Z,-6.10
2019-01-20T02:24:46.747Z,-6.10
2019-01-20T02:26:50.715Z,-6.20
2019-01-20T02:28:54.778Z,-6.20
2019-01-20T02:30:58.735Z,-6.20
2019-01-20T02:33:02.817Z,-6.20
2019-01-20T02:35:06.991Z,-6.30
2019-01-20T02:37:10.888Z,-6.20
2019-01-20T02:39:14.762Z,-6.30
2019-01-20T02:41:19.151Z,-6.30
2019-01-20T02:43:23.019Z,-6.30
2019-01-20T02:45:27.178Z,-6.30
2019-01-20T02:47:31.091Z,-6.20
2019-01-20T02:49:47.042Z,-6.20
2019-01-20T02:51:50.940Z,-6.20
2019-01-20T02:53:54.774Z,-6.20
2019-01-20T02:55:58.683Z,-6.30
2019-01-20T02:58:02.582Z,-6.20
2019-01-20T03:00:10.232Z,-6.20
2019-01-20T03:02:14.134Z,-6.20
2019-01-20T03:04:18.026Z,-6.20
2019-01-20T03:06:21.988Z,-6.20
2019-01-20T03:08:25.890Z,-6.20
2019-01-20T03:10:29.833Z,-6.30
2019-01-20T03:12:33.830Z,-6.40
2019-01-20T03:14:37.782Z,-6.40
2019-01-20T03:16:41.752Z,-6.40
2019-01-20T03:18:45.911Z,-6.40
2019-01-20T03:20:49.956Z,-6.40
2019-01-20T03:22:53.952Z,-6.40
2019-01-20T03:24:57.822Z,-6.50
2019-01-20T03:27:01.742Z,-6.50
2019-01-20T03:29:05.733Z,-6.50
2019-01-20T03:31:09.630Z,-6.50
2019-01-20T03:33:13.432Z,-6.50
2019-01-20T03:35:19.352Z,-6.60
2019-01-20T03:37:24.624Z,-6.60
2019-01-20T03:39:28.754Z,-6.60
2019-01-20T03:41:32.546Z,-6.60
2019-01-20T03:43:36.930Z,-6.60
2019-01-20T03:45:40.821Z,-6.60
2019-01-20T03:47:44.941Z,-6.60
2019-01-20T03:49:49.214Z,-6.70
2019-01-20T03:51:53.115Z,-6.70
2019-01-20T03:53:56.995Z,-6.70
2019-01-20T03:56:00.878Z,-6.70
2019-01-20T03:58:04.957Z,-6.70
2019-01-20T04:00:14.730Z,-6.60
2019-01-20T04:02:20.340Z,-6.60
2019-01-20T04:04:24.295Z,-6.60
2019-01-20T04:06:28.226Z,-6.60
2019-01-20T04:08:32.164Z,-6.60
2019-01-20T04:10:36.124Z,-6.60
2019-01-20T04:12:40.076Z,-6.60
2019-01-20T04:14:43.976Z,-6.70
2019-01-20T04:16:47.934Z,-6.70
2019-01-20T04:18:52.108Z,-6.80
2019-01-20T04:20:55.993Z,-6.80
2019-01-20T04:22:59.887Z,-6.80
2019-01-20T04:25:04.323Z,-6.80
2019-01-20T04:27:08.261Z,-6.90
2019-01-20T04:29:12.154Z,-6.90
2019-01-20T04:31:15.967Z,-6.90
2019-01-20T04:33:19.795Z,-6.90
2019-01-20T04:35:23.667Z,-6.90
2019-01-20T04:37:27.751Z,-6.90
2019-01-20T04:39:31.580Z,-6.90
2019-01-20T04:41:35.798Z,-6.90
2019-01-20T04:43:39.738Z,-6.90
2019-01-20T04:45:43.545Z,-6.80
2019-01-20T04:47:47.508Z,-6.80
2019-01-20T04:49:51.404Z,-6.80
2019-01-20T04:51:55.362Z,-6.80
2019-01-20T04:53:59.414Z,-6.90
2019-01-20T04:56:03.379Z,-6.90
2019-01-20T04:58:07.535Z,-6.80
2019-01-20T05:00:16.782Z,-6.80
2019-01-20T05:02:20.726Z,-6.90
2019-01-20T05:04:24.597Z,-6.90
2019-01-20T05:06:28.483Z,-7.00
2019-01-20T05:08:32.394Z,-7.00
2019-01-20T05:10:36.358Z,-6.90
2019-01-20T05:12:40.371Z,-6.90
2019-01-20T05:14:44.183Z,-6.90
2019-01-20T05:16:53.080Z,-6.90
2019-01-20T05:18:56.885Z,-6.90
2019-01-20T05:21:00.746Z,-6.90
2019-01-20T05:23:04.768Z,-6.80
2019-01-20T05:25:08.856Z,-6.90
2019-01-20T05:27:13.010Z,-6.90
2019-01-20T05:29:16.824Z,-6.90
2019-01-20T05:31:20.776Z,-6.90
2019-01-20T05:33:24.755Z,-7.00
2019-01-20T05:35:28.999Z,-7.00
2019-01-20T05:37:32.826Z,-7.00
2019-01-20T05:39:37.743Z,-7.00
2019-01-20T05:41:41.631Z,-7.00
2019-01-20T05:43:45.567Z,-7.00
2019-01-20T05:45:49.759Z,-7.00
2019-01-20T05:47:54.060Z,-7.00
2019-01-20T05:49:58.069Z,-7.00
2019-01-20T05:52:02.357Z,-7.00
2019-01-20T05:54:06.267Z,-7.10
2019-01-20T05:56:10.206Z,-7.00
2019-01-20T05:58:14.013Z,-7.10
2019-01-20T06:00:20.498Z,-7.10
2019-01-20T06:02:24.471Z,-7.10
2019-01-20T06:04:28.347Z,-7.10
2019-01-20T06:06:32.319Z,-7.10
2019-01-20T06:08:36.203Z,-7.10
2019-01-20T06:10:40.030Z,-7.10
2019-01-20T06:12:44.039Z,-7.10
2019-01-20T06:14:47.843Z,-7.10
2019-01-20T06:16:51.680Z,-7.10
2019-01-20T06:18:55.652Z,-7.10
2019-01-20T06:20:59.927Z,-7.10
2019-01-20T06:23:03.920Z,-7.10
2019-01-20T06:25:07.916Z,-7.10
2019-01-20T06:27:11.790Z,-7.10
2019-01-20T06:29:15.707Z,-7.10
2019-01-20T06:31:19.598Z,-7.10
2019-01-20T06:33:23.549Z,-7.00
2019-01-20T06:35:27.480Z,-7.00
2019-01-20T06:37:31.361Z,-7.00
2019-01-20T06:39:35.721Z,-7.00
2019-01-20T06:41:39.535Z,-7.10
2019-01-20T06:43:43.359Z,-7.10
2019-01-20T06:45:47.312Z,-7.10
2019-01-20T06:47:51.246Z,-7.10
2019-01-20T06:49:55.122Z,-7.20
2019-01-20T06:51:58.955Z,-7.20
2019-01-20T06:54:02.867Z,-7.30
2019-01-20T06:56:12.284Z,-7.30
2019-01-20T06:58:34.495Z,-7.30
2019-01-20T07:00:51.832Z,-7.30
2019-01-20T07:03:18.906Z,-7.30
2019-01-20T07:05:30.200Z,-7.30
2019-01-20T07:07:34.937Z,-7.30
2019-01-20T07:12:24.668Z,-7.40
2019-01-20T07:14:33.293Z,-7.40
2019-01-20T07:16:37.579Z,-7.30
2019-01-20T07:18:46.784Z,-7.30
2019-01-20T07:20:54.188Z,-7.30
2019-01-20T07:23:06.295Z,-7.30
2019-01-20T07:25:13.858Z,-7.30
2019-01-20T07:27:20.697Z,-7.30
2019-01-20T07:29:34.288Z,-7.30
2019-01-20T07:32:13.492Z,-7.30
2019-01-20T07:34:21.819Z,-7.20
2019-01-20T07:36:27.259Z,-7.20
2019-01-20T07:38:31.370Z,-7.20
2019-01-20T07:40:38.223Z,-7.20
2019-01-20T07:42:56.869Z,-7.20
2019-01-20T07:45:05.579Z,-7.10
2019-01-20T07:47:18.070Z,-7.10
2019-01-20T07:49:27.004Z,-7.10
2019-01-20T07:51:35.264Z,-7.10
2019-01-20T07:53:43.245Z,-7.10
2019-01-20T07:56:11.098Z,-7.00
2019-01-20T07:58:35.701Z,-7.00
2019-01-20T08:00:55.595Z,-6.90
2019-01-20T08:03:05.174Z,-6.80
2019-01-20T08:05:22.688Z,-6.80
2019-01-20T08:07:40.926Z,-6.70
2019-01-20T08:10:00.656Z,-6.60
2019-01-20T08:12:08.676Z,-6.60
2019-01-20T08:14:48.434Z,-6.50
2019-01-20T08:16:42.737Z,-6.50
2019-01-20T08:18:58.229Z,-6.40
2019-01-20T08:21:18.072Z,-6.30
2019-01-20T08:23:13.741Z,-6.20
2019-01-20T08:25:23.717Z,-6.20
2019-01-20T08:27:43.553Z,-6.10
2019-01-20T08:29:51.655Z,-6.00
2019-01-20T08:32:03.940Z,-5.80
2019-01-20T08:37:30.048Z,-5.70
2019-01-20T08:39:48.557Z,-5.70
2019-01-20T08:42:05.554Z,-5.60
2019-01-20T08:44:19.935Z,-5.50
2019-01-20T08:47:13.546Z,-5.40
2019-01-20T08:49:21.313Z,-5.30
2019-01-20T08:51:39.164Z,-5.00
2019-01-20T08:54:08.344Z,-4.80
2019-01-20T08:56:18.259Z,-4.60
2019-01-20T08:59:03.577Z,-4.10
2019-01-20T09:01:15.909Z,-3.80
2019-01-20T09:03:39.217Z,-3.40
2019-01-20T09:06:13.528Z,-2.70
2019-01-20T09:08:36.585Z,-2.30
2019-01-20T09:10:59.040Z,-2.50
2019-01-20T09:13:29.647Z,-2.60
2019-01-20T09:15:33.759Z,-2.70
2019-01-20T09:18:00.237Z,-2.80
2019-01-20T09:20:05.326Z,-2.90
2019-01-20T09:23:11.262Z,-3.00
2019-01-20T09:26:02.359Z,-3.00
2019-01-20T09:28:27.158Z,-3.00
2019-01-20T09:30:55.051Z,-3.00
2019-01-20T09:36:00.167Z,-3.00
2019-01-20T09:38:14.429Z,-2.90
2019-01-20T09:40:47.133Z,-2.90
2019-01-20T09:43:29.465Z,-2.80
2019-01-20T09:45:49.617Z,-2.80
2019-01-20T09:48:21.326Z,-2.70
2019-01-20T09:50:46.645Z,-2.60
2019-01-20T09:53:16.108Z,-2.60
2019-01-20T09:55:31.932Z,-2.60
2019-01-20T09:58:19.366Z,-2.50
2019-01-20T10:00:32.468Z,-2.40
2019-01-20T10:06:07.008Z,-2.30
2019-01-20T10:11:12.022Z,-2.10
2019-01-20T10:16:11.924Z,-2.00
2019-01-20T10:18:48.159Z,-1.90
2019-01-20T10:21:30.902Z,-1.90
2019-01-20T10:25:15.045Z,-1.90
2019-01-20T10:27:31.193Z,-1.80
2019-01-20T10:30:54.974Z,-1.70
2019-01-20T10:33:22.714Z,-1.60
2019-01-20T10:35:31.423Z,-1.50
2019-01-20T10:37:36.944Z,-1.50
2019-01-20T10:39:41.430Z,-1.40
2019-01-20T10:42:22.968Z,-1.40
2019-01-20T10:44:20.292Z,-1.30
2019-01-20T10:46:32.103Z,-1.10
2019-01-20T10:48:52.383Z,-1.10
2019-01-20T10:53:44.334Z,-1.00
2019-01-20T10:56:15.056Z,-0.90
2019-01-20T10:58:25.755Z,-0.90
2019-01-20T11:00:39.567Z,-0.80
2019-01-20T11:03:19.134Z,-0.70
2019-01-20T11:05:55.930Z,-0.70
2019-01-20T11:08:21.004Z,-0.60
2019-01-20T11:10:56.295Z,-0.40
2019-01-20T11:13:03.528Z,-0.40
2019-01-20T11:15:09.822Z,-0.30
2019-01-20T11:17:14.203Z,-0.30
2019-01-20T11:19:25.523Z,-0.30
2019-01-20T11:21:35.415Z,-0.20
2019-01-20T11:23:39.287Z,-0.10
2019-01-20T11:25:44.025Z,-0.10
2019-01-20T11:27:47.889Z,0.00
2019-01-20T11:29:52.006Z,0.00
2019-01-20T11:31:55.865Z,0.10
2019-01-20T11:33:59.903Z,0.10
2019-01-20T11:36:03.930Z,0.20
2019-01-20T11:38:07.956Z,0.20
2019-01-20T11:40:16.097Z,0.20
2019-01-20T11:42:23.197Z,0.30
2019-01-20T11:44:27.030Z,0.40
2019-01-20T11:47:48.205Z,0.50
2019-01-20T11:59:34.455Z,0.70
2019-01-20T12:05:43.947Z,0.80
2019-01-20T12:08:30.715Z,0.90
2019-01-20T12:11:15.009Z,0.90
2019-01-20T12:13:36.732Z,1.00
2019-01-20T12:16:15.810Z,1.00
2019-01-20T12:18:23.006Z,1.10
2019-01-20T12:27:14.900Z,1.30
2019-01-20T12:29:22.747Z,1.40
2019-01-20T12:31:29.629Z,1.40
2019-01-20T12:33:49.704Z,1.50
2019-01-20T12:36:12.351Z,1.60
2019-01-20T12:38:24.031Z,1.60
2019-01-20T12:40:30.445Z,1.70
2019-01-20T12:42:35.407Z,1.80
2019-01-20T12:44:42.793Z,1.80
2019-01-20T12:46:46.775Z,1.80
2019-01-20T12:48:52.636Z,1.80
2019-01-20T12:50:56.555Z,1.80
2019-01-20T12:53:00.462Z,1.80
2019-01-20T12:55:06.744Z,1.80
2019-01-20T12:57:10.871Z,1.80
2019-01-20T12:59:14.953Z,1.80
2019-01-20T13:01:20.970Z,1.70
2019-01-20T13:03:24.982Z,1.70
2019-01-20T13:05:32.046Z,1.70
2019-01-20T13:07:39.371Z,1.80
2019-01-20T13:09:43.694Z,1.80
2019-01-20T13:11:47.495Z,1.80
2019-01-20T13:13:51.410Z,1.80
2019-01-20T13:15:55.593Z,1.80
2019-01-20T13:17:59.419Z,1.80
2019-01-20T13:20:03.901Z,1.80
2019-01-20T13:22:07.890Z,1.80
2019-01-20T13:24:11.772Z,1.90
2019-01-20T13:26:15.568Z,1.90
2019-01-20T13:28:19.474Z,1.80
2019-01-20T13:30:25.138Z,1.80
2019-01-20T13:32:29.182Z,1.80
2019-01-20T13:34:33.147Z,1.80
2019-01-20T13:36:37.287Z,1.90
2019-01-20T13:38:41.343Z,1.90
2019-01-20T13:40:51.546Z,1.90
2019-01-20T13:42:55.607Z,2.00
2019-01-20T13:44:59.669Z,2.00
2019-01-20T13:47:03.580Z,2.00
2019-01-20T13:49:07.462Z,2.10
2019-01-20T13:51:11.518Z,2.10
2019-01-20T13:53:15.395Z,2.20
2019-01-20T13:55:19.264Z,2.20
2019-01-20T13:57:23.235Z,2.20
2019-01-20T13:59:27.217Z,2.30
2019-01-20T14:01:31.123Z,2.30
2019-01-20T14:03:36.855Z,2.30
2019-01-20T14:05:40.765Z,2.30
2019-01-20T14:07:44.713Z,2.40
2019-01-20T14:09:48.603Z,2.30
2019-01-20T14:11:52.588Z,2.30
2019-01-20T14:13:56.439Z,2.30
2019-01-20T14:16:00.326Z,2.30
2019-01-20T14:18:04.370Z,2.20
2019-01-20T14:20:15.036Z,2.20
2019-01-20T14:22:18.922Z,2.20
2019-01-20T14:24:25.095Z,2.20
2019-01-20T14:26:31.608Z,2.10
2019-01-20T14:28:45.508Z,2.10
2019-01-20T14:31:37.912Z,2.10
2019-01-20T14:37:00.922Z,1.90
2019-01-20T14:39:15.931Z,1.90
2019-01-20T14:41:32.360Z,1.80
2019-01-20T14:44:42.826Z,1.70
2019-01-20T14:46:50.032Z,1.60
2019-01-20T14:52:17.224Z,1.50
2019-01-20T14:54:14.164Z,1.50
2019-01-20T15:00:16.044Z,1.50
2019-01-20T15:02:36.403Z,1.60
2019-01-20T15:04:43.189Z,1.60
2019-01-20T15:06:47.448Z,1.50
2019-01-20T15:08:53.601Z,1.40
2019-01-20T15:10:57.567Z,1.40
2019-01-20T15:13:01.620Z,1.40
2019-01-20T15:15:09.054Z,1.40
2019-01-20T15:17:13.704Z,1.30
2019-01-20T15:19:17.632Z,1.40
2019-01-20T15:21:21.595Z,1.30
2019-01-20T15:23:27.462Z,1.30
2019-01-20T15:25:31.623Z,1.30
2019-01-20T15:27:35.830Z,1.20
2019-01-20T15:29:39.698Z,1.20
2019-01-20T15:31:43.643Z,1.10
2019-01-20T15:33:47.485Z,1.10
2019-01-20T15:35:51.428Z,1.00
2019-01-20T15:37:55.415Z,1.10
2019-01-20T15:39:59.303Z,1.00
2019-01-20T15:42:03.350Z,1.00
2019-01-20T15:44:07.255Z,0.90
2019-01-20T15:46:14.043Z,0.80
2019-01-20T15:48:21.579Z,0.70
2019-01-20T15:50:55.767Z,0.60
2019-01-20T15:53:09.750Z,0.50
2019-01-20T15:55:38.489Z,0.30
2019-01-20T15:57:42.773Z,0.30
2019-01-20T15:59:57.960Z,0.10
2019-01-20T16:02:06.959Z,0.10
2019-01-20T16:04:11.062Z,0.00
2019-01-20T16:06:42.651Z,-0.10
2019-01-20T16:09:07.621Z,-0.10
2019-01-20T16:11:12.024Z,-0.20
2019-01-20T16:13:16.104Z,-0.30
2019-01-20T16:15:24.775Z,-0.40
2019-01-20T16:17:50.242Z,-0.40
2019-01-20T16:19:54.195Z,-0.40
2019-01-20T16:21:58.071Z,-0.40
2019-01-20T16:24:01.974Z,-0.40
2019-01-20T16:26:06.108Z,-0.50
2019-01-20T16:28:11.278Z,-0.40
2019-01-20T16:30:20.824Z,-0.50
2019-01-20T16:32:24.718Z,-0.50
2019-01-20T16:34:28.759Z,-0.60
2019-01-20T16:36:32.775Z,-0.60
2019-01-20T16:38:36.730Z,-0.60
2019-01-20T16:40:40.696Z,-0.60
2019-01-20T16:42:44.799Z,-0.70
2019-01-20T16:44:48.732Z,-0.70
2019-01-20T16:46:52.740Z,-0.80
2019-01-20T16:48:56.571Z,-0.80
2019-01-20T16:51:02.237Z,-0.90
2019-01-20T16:53:07.111Z,-0.90
2019-01-20T16:55:11.772Z,-0.90
2019-01-20T16:57:15.674Z,-1.00
2019-01-20T16:59:19.656Z,-1.00
2019-01-20T17:01:23.546Z,-1.00
2019-01-20T17:03:27.440Z,-1.00
2019-01-20T17:05:31.404Z,-1.00
2019-01-20T17:07:35.547Z,-1.10
2019-01-20T17:09:39.479Z,-1.10
2019-01-20T17:11:44.056Z,-1.10
2019-01-20T17:13:48.015Z,-1.20
2019-01-20T17:15:51.856Z,-1.30
2019-01-20T17:17:56.076Z,-1.50
2019-01-20T17:19:59.994Z,-1.60
2019-01-20T17:22:13.253Z,-1.70
2019-01-20T17:24:17.158Z,-1.70
2019-01-20T17:26:21.075Z,-1.70
2019-01-20T17:28:25.062Z,-1.70
2019-01-20T17:30:30.992Z,-1.70
2019-01-20T17:32:47.007Z,-1.80
2019-01-20T17:34:51.014Z,-1.80
2019-01-20T17:37:04.136Z,-1.90
2019-01-20T17:39:12.160Z,-1.90
2019-01-20T17:41:19.136Z,-1.90
2019-01-20T17:43:23.064Z,-1.90
2019-01-20T17:45:29.652Z,-2.00
2019-01-20T17:47:33.570Z,-2.00
2019-01-20T17:49:37.454Z,-2.10
2019-01-20T17:51:43.610Z,-2.10
2019-01-20T17:53:47.427Z,-2.00
2019-01-20T17:55:58.487Z,-2.00
2019-01-20T17:58:10.213Z,-2.00
2019-01-20T18:00:31.820Z,-2.00
2019-01-20T18:03:35.081Z,-2.00
2019-01-20T18:38:32.345Z,-2.70
2019-01-20T18:47:48.277Z,-2.80
2019-01-20T18:50:37.225Z,-2.80
2019-01-20T18:56:29.416Z,-2.90
2019-01-20T19:13:27.588Z,-3.00
2019-01-20T19:20:19.872Z,-3.20
2019-01-20T19:36:14.903Z,-3.50
2019-01-20T19:38:35.880Z,-3.60
2019-01-20T19:41:28.576Z,-3.60
2019-01-20T19:44:07.017Z,-3.60
2019-01-20T19:46:38.715Z,-3.60
2019-01-20T19:49:23.383Z,-3.70
2019-01-20T19:51:57.641Z,-3.70
2019-01-20T19:57:38.397Z,-3.80
2019-01-20T19:59:52.225Z,-3.90
2019-01-20T20:02:26.611Z,-3.90
2019-01-20T20:04:51.379Z,-3.90
2019-01-20T20:07:16.707Z,-4.00
2019-01-20T20:10:34.465Z,-4.00
2019-01-20T20:13:45.819Z,-4.00
2019-01-20T20:17:41.926Z,-4.00
2019-01-20T20:18:15.216Z,-4.00
2019-01-20T20:20:51.525Z,-3.90
2019-01-20T20:23:10.013Z,-3.90
2019-01-20T20:26:05.797Z,-3.90
2019-01-20T20:28:16.205Z,-3.90
2019-01-20T20:30:37.773Z,-4.00
2019-01-20T20:32:53.341Z,-4.00
2019-01-20T20:35:44.612Z,-4.10
2019-01-20T20:37:47.197Z,-4.10
2019-01-20T20:42:50.717Z,-4.20
2019-01-20T20:45:41.391Z,-4.30
2019-01-20T20:54:13.462Z,-4.50
2019-01-20T20:56:17.280Z,-4.50
2019-01-20T20:58:21.594Z,-4.50
2019-01-20T21:01:22.335Z,-4.50
2019-01-20T21:03:45.982Z,-4.60
2019-01-20T21:05:49.909Z,-4.60
2019-01-20T21:09:06.290Z,-4.60
2019-01-20T21:11:45.561Z,-4.60
2019-01-20T21:15:18.659Z,-4.70
2019-01-20T21:17:51.279Z,-4.70
2019-01-20T21:19:54.250Z,-4.80
2019-01-20T21:22:26.473Z,-4.80
2019-01-20T21:24:33.302Z,-4.80
2019-01-20T21:26:45.204Z,-4.80
2019-01-20T21:30:02.987Z,-4.90
2019-01-20T21:31:31.787Z,-4.90
2019-01-20T21:34:27.911Z,-4.90
2019-01-20T21:36:38.521Z,-4.90
2019-01-20T21:39:07.116Z,-5.00
2019-01-20T23:05:02.715Z,-5.50
2019-01-20T23:07:45.464Z,-5.50
2019-01-20T23:15:09.586Z,-5.60
2019-01-20T23:42:58.686Z,-5.90
2019-01-20T23:45:27.719Z,-5.90
2019-01-20T23:47:56.736Z,-6.00
2019-01-20T23:50:36.719Z,-6.00
2019-01-20T23:53:00.745Z,-6.00
2019-01-20T23:58:11.550Z,-6.00
